Time;durP1;ratioP1;P1;durP2;ratioP2;P2;SDS_P1;SDS_P2;PMS_P1;PMS_P2;Temp;Humidity;BMP_temperature;BMP_pressure;BME280_temperature;BME280_humidity;BME280_pressure;Samples;Min_cycle;Max_cycle;Signal;HPM_P1;HPM_P2
2022/01/30 00:00:35;;;;;;;8.37;5.07;;;;;;;2.38;53.02;101930.22;2583481;23;20170;-70
2022/01/30 00:01:36;;;;;;;7.27;5.00;;;;;;;2.83;52.82;101988.22;2583528;23;20144;-70
2022/01/30 00:02:36;;;;;;;7.73;4.70;;;;;;;2.76;52.68;101979.00;2570043;23;20196;-70
2022/01/30 00:03:37;;;;;;;8.03;4.40;;;;;;;2.79;52.75;101987.34;2570189;23;20179;-70
2022/01/30 00:04:37;;;;;;;7.17;4.60;;;;;;;2.65;52.53;101975.16;2583489;23;20147;-70
2022/01/30 00:05:38;;;;;;;9.30;4.93;;;;;;;2.54;52.71;101980.34;2583412;23;20198;-70
2022/01/30 00:06:39;;;;;;;8.53;4.87;;;;;;;2.57;53.15;101992.53;2583477;23;20150;-70
2022/01/30 00:07:39;;;;;;;7.23;4.90;;;;;;;2.50;53.29;101981.34;2582563;23;20259;-70
2022/01/30 00:08:40;;;;;;;6.87;4.50;;;;;;;2.52;52.86;101974.38;2582830;23;20154;-70
2022/01/30 00:09:40;;;;;;;6.70;4.33;;;;;;;2.13;52.86;101897.78;2583564;23;20152;-70
2022/01/30 00:10:41;;;;;;;8.23;4.90;;;;;;;2.32;53.28;101925.31;2583456;23;20148;-70
2022/01/30 00:11:43;;;;;;;7.18;4.57;;;;;;;2.69;52.53;101974.13;2583239;23;20144;-70
2022/01/30 00:12:50;;;;;;;7.82;4.70;;;;;;;2.73;52.79;101977.75;2583628;23;20482;-70
2022/01/30 00:13:50;;;;;;;6.82;4.57;;;;;;;2.69;53.02;101965.13;2583486;23;20132;-70
2022/01/30 00:14:54;;;;;;;7.27;4.50;;;;;;;2.74;52.67;101964.88;2569979;23;20167;-70
2022/01/30 00:15:55;;;;;;;8.95;4.78;;;;;;;2.75;53.11;101966.47;2570745;23;20650;-70
2022/01/30 00:17:19;;;;;;;10.57;4.82;;;;;;;2.67;52.68;101949.03;2583427;23;20152;-70
2022/01/30 00:19:29;;;;;;;9.68;5.10;;;;;;;2.72;52.55;101964.44;2583449;23;20152;-70
2022/01/30 00:20:33;;;;;;;7.93;4.30;;;;;;;2.84;52.19;101970.66;2583392;23;20230;-70
2022/01/30 00:21:41;;;;;;;7.45;4.63;;;;;;;2.83;52.15;101966.31;2583344;23;20498;-70
2022/01/30 00:22:48;;;;;;;7.50;4.43;;;;;;;2.84;52.39;101975.34;2582569;23;20152;-70
2022/01/30 00:23:57;;;;;;;8.07;4.75;;;;;;;2.23;53.05;101891.81;2582789;23;20139;-70
2022/01/30 00:25:03;;;;;;;7.47;4.45;;;;;;;2.60;53.14;101954.31;2570048;23;20155;-70
2022/01/30 00:26:06;;;;;;;8.13;4.90;;;;;;;2.33;52.69;101885.88;2571054;23;20231;-70
2022/01/30 00:27:11;;;;;;;7.60;4.38;;;;;;;2.84;52.48;101958.91;2582675;23;20148;-70
2022/01/30 00:28:14;;;;;;;7.70;4.53;;;;;;;2.84;52.79;101956.16;2569980;23;20176;-70
2022/01/30 00:29:15;;;;;;;7.32;3.90;;;;;;;2.04;52.72;101832.28;2570448;23;20152;-70
2022/01/30 00:30:17;;;;;;;6.37;4.40;;;;;;;2.57;53.44;101921.38;2583396;23;20147;-70
2022/01/30 00:31:20;;;;;;;6.35;4.15;;;;;;;2.86;53.09;101951.13;2583427;23;20155;-69
2022/01/30 00:32:20;;;;;;;8.60;4.85;;;;;;;2.84;52.69;101956.97;2583414;23;20155;-69
2022/01/30 00:33:21;;;;;;;7.53;4.30;;;;;;;2.82;53.00;101958.47;2583380;23;20609;-69
2022/01/30 00:34:22;;;;;;;6.10;4.03;;;;;;;1.87;52.72;101798.94;2583399;23;20171;-69
2022/01/30 00:35:22;;;;;;;7.23;4.00;;;;;;;2.77;53.35;101950.50;2583298;23;20148;-70
2022/01/30 00:36:23;;;;;;;8.60;4.43;;;;;;;2.64;53.21;101927.84;2583363;23;20242;-70
2022/01/30 00:37:23;;;;;;;7.10;3.90;;;;;;;2.85;53.02;101955.84;2583367;23;20155;-70
2022/01/30 00:38:26;;;;;;;6.90;4.63;;;;;;;2.90;52.97;101961.06;2583319;23;20144;-70
2022/01/30 00:39:26;;;;;;;8.38;4.13;;;;;;;2.89;53.21;101953.19;2569909;23;20156;-70
2022/01/30 00:40:27;;;;;;;8.60;4.20;;;;;;;2.87;52.86;101953.53;2570191;23;20155;-70
2022/01/30 00:41:28;;;;;;;6.13;4.13;;;;;;;2.85;53.15;101955.84;2583411;23;20144;-70
2022/01/30 00:42:29;;;;;;;8.67;4.27;;;;;;;2.14;53.66;101858.34;2583333;23;20171;-70
2022/01/30 00:43:29;;;;;;;8.48;4.53;;;;;;;2.83;53.68;101965.53;2583287;23;20277;-70
2022/01/30 00:44:30;;;;;;;7.20;4.57;;;;;;;2.79;53.73;101956.41;2583308;23;20373;-70
2022/01/30 00:45:30;;;;;;;7.37;4.47;;;;;;;2.21;53.64;101864.81;2583213;23;20479;-70
2022/01/30 00:46:31;;;;;;;8.13;4.60;;;;;;;2.77;53.72;101950.50;2583312;23;20183;-70
2022/01/30 00:47:31;;;;;;;7.80;4.10;;;;;;;2.79;53.74;101950.94;2583259;23;20469;-70
2022/01/30 00:48:32;;;;;;;6.93;4.20;;;;;;;2.84;53.45;101939.75;2583292;23;20144;-70
2022/01/30 00:49:33;;;;;;;8.60;4.70;;;;;;;2.91;53.61;101950.88;2583261;23;20207;-70
2022/01/30 00:50:34;;;;;;;8.80;4.70;;;;;;;2.95;53.29;101955.34;2583270;23;20590;-70
2022/01/30 00:51:37;;;;;;;9.32;4.43;;;;;;;2.93;53.27;101948.63;2583267;23;20248;-70
2022/01/30 00:52:38;;;;;;;9.25;4.68;;;;;;;2.43;53.08;101866.25;2583334;23;20144;-70
2022/01/30 00:53:38;;;;;;;8.03;4.50;;;;;;;3.05;52.65;101954.03;2583245;23;20151;-70
2022/01/30 00:54:39;;;;;;;9.87;4.50;;;;;;;2.46;52.85;101860.88;2583196;23;20144;-70
2022/01/30 00:55:39;;;;;;;7.23;4.57;;;;;;;3.08;53.11;101970.56;2583315;23;20152;-70
2022/01/30 00:56:40;;;;;;;7.80;4.70;;;;;;;3.04;52.94;101966.13;2583257;23;20148;-69
2022/01/30 00:57:40;;;;;;;7.23;4.70;;;;;;;2.54;52.51;101878.28;2583237;23;20209;-70
2022/01/30 00:58:41;;;;;;;8.70;5.10;;;;;;;3.13;52.47;101978.53;2583155;23;20170;-70
2022/01/30 00:59:41;;;;;;;8.10;4.63;;;;;;;3.16;52.16;101961.41;2582970;23;20168;-69
2022/01/30 01:00:42;;;;;;;8.50;4.83;;;;;;;3.18;52.68;101961.81;2583335;23;20273;-70
2022/01/30 01:01:42;;;;;;;8.47;4.73;;;;;;;3.21;52.33;101963.88;2583298;23;20148;-70
2022/01/30 01:02:44;;;;;;;8.17;4.53;;;;;;;3.26;52.44;101958.16;2583148;23;20510;-70
2022/01/30 01:03:45;;;;;;;8.50;4.85;;;;;;;3.26;52.67;101957.34;2583477;23;20593;-70
2022/01/30 01:04:45;;;;;;;8.07;4.80;;;;;;;3.10;52.28;101954.59;2583166;23;20478;-70
2022/01/30 01:05:47;;;;;;;8.83;5.03;;;;;;;2.57;51.94;101847.50;2583186;23;20281;-70
2022/01/30 01:06:49;;;;;;;9.02;4.90;;;;;;;3.38;51.82;101946.31;2583356;23;20147;-70
2022/01/30 01:07:53;;;;;;;9.85;5.00;;;;;;;3.35;52.00;101942.34;2583145;23;20179;-70
2022/01/30 01:09:02;;;;;;;7.65;4.43;;;;;;;3.41;51.81;101931.91;2583373;23;20149;-70
2022/01/30 01:10:10;;;;;;;8.88;4.85;;;;;;;3.45;51.45;101930.84;2583280;23;20201;-70
2022/01/30 01:11:29;;;;;;;7.20;4.15;;;;;;;3.43;51.64;101913.16;2583305;23;20274;-70
2022/01/30 01:24:06;;;;;;;6.55;4.10;;;;;;;3.40;50.14;101813.31;2583200;23;20485;-70
2022/01/30 01:25:08;;;;;;;8.18;3.90;;;;;;;3.82;49.87;101880.09;2583230;23;20590;-70
2022/01/30 01:26:08;;;;;;;8.15;3.95;;;;;;;3.84;50.40;101877.00;2583096;23;20155;-70
2022/01/30 01:27:09;;;;;;;8.03;4.10;;;;;;;3.85;49.98;101876.59;2583166;23;20152;-70
2022/01/30 01:28:09;;;;;;;6.83;3.83;;;;;;;3.75;50.67;101847.00;2583101;23;20176;-70
2022/01/30 01:29:09;;;;;;;6.27;3.77;;;;;;;3.94;50.04;101866.25;2583148;23;20152;-70
2022/01/30 01:30:11;;;;;;;8.03;4.30;;;;;;;4.01;49.45;101865.63;2583102;23;20155;-70
2022/01/30 01:31:12;;;;;;;6.63;3.90;;;;;;;4.03;49.57;101863.31;2583146;23;20152;-70
2022/01/30 01:32:13;;;;;;;8.48;4.00;;;;;;;4.02;49.92;101857.03;2583119;23;20655;-70
2022/01/30 01:33:14;;;;;;;6.70;3.90;;;;;;;3.84;49.66;101820.19;2569773;23;20547;-70
2022/01/30 01:34:30;;;;;;;6.68;4.10;;;;;;;4.05;49.64;101853.56;2569968;23;20149;-70
2022/01/30 01:35:30;;;;;;;8.05;4.15;;;;;;;4.05;49.86;101839.06;2569733;23;20156;-70
2022/01/30 01:36:31;;;;;;;6.83;4.10;;;;;;;4.03;49.60;101852.31;2570101;23;20224;-70
2022/01/30 01:37:32;;;;;;;6.43;3.83;;;;;;;4.02;49.65;101843.31;2583155;23;20542;-70
2022/01/30 01:38:32;;;;;;;7.27;4.07;;;;;;;3.42;49.74;101730.72;2583158;23;20616;-70
2022/01/30 01:39:33;;;;;;;8.30;4.10;;;;;;;4.04;49.71;101827.28;2583137;23;20610;-70
2022/01/30 01:40:33;;;;;;;6.30;3.87;;;;;;;4.10;49.36;101833.31;2583103;23;20198;-70
2022/01/30 01:41:36;;;;;;;7.10;3.97;;;;;;;4.16;48.99;101826.38;2583142;23;20601;-70
2022/01/30 01:42:36;;;;;;;9.55;4.22;;;;;;;3.85;49.05;101777.13;2583132;23;20151;-70
2022/01/30 01:43:37;;;;;;;7.70;4.23;;;;;;;3.78;48.59;101765.97;2583074;23;20155;-70
2022/01/30 01:44:43;;;;;;;6.25;3.85;;;;;;;3.65;48.58;101735.16;2583098;23;20148;-70
2022/01/30 01:45:45;;;;;;;7.40;3.67;;;;;;;3.63;48.85;101753.09;2583174;23;20132;-70
2022/01/30 01:46:47;;;;;;;7.38;4.20;;;;;;;4.16;48.86;101840.09;2583145;23;20155;-70
2022/01/30 01:47:47;;;;;;;7.25;3.85;;;;;;;3.76;48.56;101760.88;2583021;23;20202;-70
2022/01/30 01:48:51;;;;;;;7.30;3.90;;;;;;;4.13;48.55;101835.31;2583142;23;20215;-70
2022/01/30 01:49:52;;;;;;;6.65;3.53;;;;;;;3.69;48.57;101773.63;2569726;23;20164;-70
2022/01/30 01:51:05;;;;;;;5.97;3.35;;;;;;;4.05;48.85;101820.66;2569885;23;20149;-69
2022/01/30 01:52:40;;;;;;;5.82;3.38;;;;;;;3.16;48.67;101700.38;2569799;23;20153;-70
2022/01/30 01:53:34;;;;;;;6.13;3.13;;;;;;;3.37;48.89;101766.59;2572518;23;20151;-70
2022/01/30 01:54:34;;;;;;;7.70;3.50;;;;;;;3.78;49.23;101835.31;2583057;23;20213;-69
2022/01/30 01:55:36;;;;;;;6.00;3.30;;;;;;;3.76;48.88;101828.63;2583037;23;20612;-69
2022/01/30 01:56:38;;;;;;;4.65;3.00;;;;;;;3.74;49.00;101833.66;2583153;23;20154;-70
2022/01/30 01:57:39;;;;;;;6.85;3.53;;;;;;;3.70;49.23;101836.31;2583223;23;20140;-70
2022/01/30 01:58:40;;;;;;;5.83;3.57;;;;;;;3.64;50.04;101828.72;2582289;23;20742;-70
2022/01/30 01:59:41;;;;;;;7.50;3.57;;;;;;;3.68;49.99;101838.63;2582483;23;20178;-70
2022/01/30 02:00:41;;;;;;;7.67;3.73;;;;;;;3.69;49.87;101833.94;2583086;23;20512;-70
2022/01/30 02:01:42;;;;;;;6.13;3.23;;;;;;;3.66;49.43;101826.41;2583150;23;20853;-70
2022/01/30 02:02:42;;;;;;;9.10;3.67;;;;;;;3.69;49.77;101831.97;2583118;23;20179;-69
2022/01/30 02:03:44;;;;;;;9.33;3.70;;;;;;;3.02;49.30;101702.78;2583142;23;20167;-70
2022/01/30 02:04:46;;;;;;;8.43;3.63;;;;;;;3.51;49.13;101772.44;2583090;23;20222;-70
2022/01/30 02:05:52;;;;;;;7.35;4.05;;;;;;;3.84;49.33;101822.16;2583133;23;20554;-70
2022/01/30 02:07:06;;;;;;;5.82;3.40;;;;;;;3.79;49.04;101822.44;2583138;23;20133;-70
2022/01/30 02:08:27;;;;;;;7.88;3.83;;;;;;;3.26;49.61;101741.72;2583062;23;20171;-70
2022/01/30 02:09:31;;;;;;;5.70;3.20;;;;;;;3.81;49.23;101820.09;2583308;23;20160;-70
2022/01/30 02:10:55;;;;;;;6.43;3.60;;;;;;;3.81;49.28;101815.44;2583196;23;20541;-69
2022/01/30 02:11:56;;;;;;;6.57;3.55;;;;;;;3.66;49.04;101782.56;2583803;23;20163;-70
2022/01/30 02:13:09;;;;;;;9.83;3.87;;;;;;;3.74;48.85;101800.78;2584040;23;20586;-70
2022/01/30 02:24:13;;;;;;;6.22;3.58;;;;;;;3.65;49.40;101773.53;2584205;23;20140;-69
2022/01/30 02:26:41;;;;;;;6.90;3.58;;;;;;;3.69;49.23;101763.44;2574651;23;20140;-70
2022/01/30 02:27:42;;;;;;;6.57;3.45;;;;;;;3.71;49.51;101755.66;2570447;23;20342;-70
2022/01/30 02:28:42;;;;;;;6.33;3.47;;;;;;;3.63;49.81;101748.44;2570608;23;20144;-70
2022/01/30 02:29:43;;;;;;;6.77;3.33;;;;;;;2.86;49.86;101639.03;2583820;23;20234;-69
2022/01/30 02:30:53;;;;;;;7.07;3.28;;;;;;;3.48;49.73;101745.72;2583786;23;20182;-70
2022/01/30 02:31:58;;;;;;;8.25;3.67;;;;;;;3.76;49.58;101758.13;2570479;23;20598;-70
2022/01/30 02:32:59;;;;;;;5.78;3.38;;;;;;;3.73;49.48;101755.28;2571615;23;20165;-70
2022/01/30 02:33:59;;;;;;;8.13;3.70;;;;;;;3.40;49.27;101711.09;2584122;23;20152;-70
2022/01/30 02:35:00;;;;;;;6.10;3.50;;;;;;;3.70;49.48;101759.53;2583845;23;20148;-70
2022/01/30 02:36:01;;;;;;;6.57;3.53;;;;;;;3.56;49.53;101739.25;2583775;23;20159;-70
2022/01/30 02:37:03;;;;;;;7.22;3.17;;;;;;;3.81;49.54;101755.09;2583184;23;20490;-69
2022/01/30 02:38:03;;;;;;;6.80;3.55;;;;;;;3.81;49.52;101755.09;2583557;23;20516;-70
2022/01/30 02:39:04;;;;;;;8.73;3.50;;;;;;;3.82;49.27;101761.38;2583995;23;20174;-70
2022/01/30 02:40:09;;;;;;;6.33;3.87;;;;;;;3.82;49.44;101773.16;2570379;23;20156;-70
2022/01/30 02:41:09;;;;;;;4.93;3.38;;;;;;;2.92;49.62;101626.69;2571552;23;20599;-70
2022/01/30 02:42:18;;;;;;;8.03;3.93;;;;;;;3.92;49.09;101756.13;2583779;23;20513;-70
2022/01/30 02:43:23;;;;;;;6.28;3.42;;;;;;;3.91;49.53;101751.75;2584152;23;20519;-69
2022/01/30 02:45:30;;;;;;;6.07;3.45;;;;;;;3.92;49.10;101744.34;2583708;23;20152;-70
2022/01/30 02:46:34;;;;;;;6.78;3.65;;;;;;;3.86;49.60;101737.56;2583785;23;20155;-70
2022/01/30 02:48:56;;;;;;;7.13;3.40;;;;;;;3.90;49.10;101739.22;2583756;23;20159;-70
2022/01/30 02:51:33;;;;;;;6.22;3.30;;;;;;;4.04;48.44;101730.47;2548258;23;20157;-70
2022/01/30 02:52:36;;;;;;;6.53;3.80;;;;;;;3.98;48.30;101740.16;2584130;23;20519;-69
2022/01/30 02:53:41;;;;;;;5.22;3.10;;;;;;;3.59;48.51;101675.50;2583747;23;20549;-70
2022/01/30 02:54:41;;;;;;;7.50;3.40;;;;;;;3.82;48.20;101685.41;2570428;23;20141;-70
2022/01/30 02:55:42;;;;;;;6.07;3.27;;;;;;;3.35;47.83;101620.97;2570444;23;20329;-69
2022/01/30 02:56:43;;;;;;;5.30;3.10;;;;;;;4.16;47.59;101727.59;2582927;23;20155;-70
2022/01/30 02:57:43;;;;;;;7.07;3.43;;;;;;;4.07;47.32;101719.59;2583040;23;20149;-69
2022/01/30 02:58:44;;;;;;;5.87;3.47;;;;;;;3.97;47.59;101709.22;2583797;23;20148;-69
2022/01/30 02:59:44;;;;;;;7.20;3.80;;;;;;;3.84;48.11;101696.78;2583680;23;20221;-69
2022/01/30 03:00:45;;;;;;;6.23;3.43;;;;;;;3.97;47.84;101705.66;2583736;23;20144;-69
2022/01/30 03:01:45;;;;;;;6.07;3.40;;;;;;;4.01;47.77;101709.28;2582823;23;20156;-69
2022/01/30 03:02:46;;;;;;;6.27;3.67;;;;;;;3.80;47.85;101690.44;2583041;23;20147;-69
2022/01/30 03:03:46;;;;;;;4.83;3.17;;;;;;;4.12;47.65;101713.81;2583740;23;20151;-69
2022/01/30 03:04:47;;;;;;;7.77;3.20;;;;;;;4.16;47.58;101708.41;2583794;23;20543;-69
2022/01/30 03:05:47;;;;;;;5.40;3.53;;;;;;;4.09;48.02;101708.25;2583729;23;20152;-69
2022/01/30 03:06:48;;;;;;;5.37;3.10;;;;;;;4.10;47.52;101707.88;2583729;23;20178;-69
2022/01/30 03:07:49;;;;;;;6.57;3.23;;;;;;;4.16;47.44;101709.19;2570239;23;20218;-69
2022/01/30 03:08:49;;;;;;;5.67;3.60;;;;;;;4.21;47.43;101700.66;2570493;23;20144;-69
2022/01/30 03:09:50;;;;;;;7.83;3.30;;;;;;;4.19;47.65;101708.47;2583741;23;20144;-69
2022/01/30 03:10:50;;;;;;;6.17;3.13;;;;;;;4.15;47.63;101709.56;2583758;23;20176;-69
2022/01/30 03:11:51;;;;;;;7.33;3.13;;;;;;;3.64;47.21;101632.16;2583605;23;20533;-69
2022/01/30 03:12:51;;;;;;;6.03;3.23;;;;;;;4.24;47.60;101702.69;2583845;23;20190;-69
2022/01/30 03:13:51;;;;;;;6.63;3.80;;;;;;;4.21;47.17;101691.66;2583682;23;20222;-69
2022/01/30 03:14:52;;;;;;;5.77;3.23;;;;;;;3.73;47.52;101635.47;2583581;23;20220;-70
2022/01/30 03:15:53;;;;;;;6.20;3.10;;;;;;;4.28;47.43;101689.03;2583675;23;20152;-69
2022/01/30 03:16:53;;;;;;;5.77;3.40;;;;;;;3.87;47.35;101632.19;2570342;23;20569;-69
2022/01/30 03:17:54;;;;;;;4.50;3.03;;;;;;;3.66;46.63;101591.47;2570416;23;20145;-69
2022/01/30 03:18:55;;;;;;;5.77;3.40;;;;;;;4.31;46.67;101671.84;2583667;23;20157;-70
2022/01/30 03:19:55;;;;;;;5.13;3.00;;;;;;;4.27;46.54;101660.78;2583621;23;20157;-69
2022/01/30 03:20:56;;;;;;;5.67;2.93;;;;;;;4.39;46.73;101655.13;2583664;23;20382;-70
2022/01/30 03:21:56;;;;;;;5.13;2.77;;;;;;;4.36;46.74;101641.34;2583426;23;20182;-69
2022/01/30 03:22:59;;;;;;;6.83;3.20;;;;;;;4.40;46.15;101650.41;2569957;23;20160;-69
2022/01/30 03:23:59;;;;;;;5.15;3.17;;;;;;;4.43;46.17;101644.22;2570718;23;20615;-70
2022/01/30 03:24:59;;;;;;;6.03;2.87;;;;;;;4.41;46.49;101652.03;2583709;23;20498;-69
2022/01/30 03:26:00;;;;;;;5.33;3.10;;;;;;;4.44;46.72;101657.56;2583677;23;20231;-69
2022/01/30 03:27:01;;;;;;;5.87;2.93;;;;;;;4.40;46.32;101645.72;2583629;23;20239;-69
2022/01/30 03:28:04;;;;;;;5.80;2.97;;;;;;;4.46;45.72;101646.22;2583712;23;20180;-69
2022/01/30 03:29:06;;;;;;;5.18;2.83;;;;;;;4.45;45.98;101634.44;2582797;23;20252;-70
2022/01/30 03:30:13;;;;;;;5.30;3.03;;;;;;;4.52;45.69;101642.78;2582922;23;20663;-69
2022/01/30 03:31:15;;;;;;;5.75;2.95;;;;;;;4.56;45.30;101642.88;2583729;23;20137;-69
2022/01/30 03:32:15;;;;;;;7.22;3.13;;;;;;;4.47;45.28;101628.59;2570293;23;20216;-69
2022/01/30 03:33:16;;;;;;;7.03;3.30;;;;;;;4.57;45.28;101634.25;2570606;23;20200;-70
2022/01/30 03:34:16;;;;;;;4.47;3.03;;;;;;;4.63;45.00;101640.22;2583631;23;20150;-69
2022/01/30 03:35:17;;;;;;;6.20;3.20;;;;;;;4.59;45.09;101633.88;2583605;23;20556;-70
2022/01/30 03:36:18;;;;;;;5.93;2.97;;;;;;;4.64;44.84;101647.31;2583657;23;20147;-69
2022/01/30 03:37:18;;;;;;;6.23;3.00;;;;;;;2.49;44.90;101312.19;2583644;23;20180;-70
2022/01/30 03:38:22;;;;;;;4.43;2.60;;;;;;;4.56;45.13;101629.94;2583573;23;20145;-70
2022/01/30 03:39:22;;;;;;;4.63;2.80;;;;;;;4.76;44.94;101658.88;2583681;23;20539;-70
2022/01/30 03:40:23;;;;;;;6.30;2.80;;;;;;;4.77;44.48;101663.22;2583627;23;20149;-70
2022/01/30 03:41:23;;;;;;;5.60;2.67;;;;;;;4.61;44.12;101626.09;2583592;23;20229;-70
2022/01/30 03:42:24;;;;;;;5.70;2.90;;;;;;;4.87;44.66;101656.31;2583579;23;20549;-69
2022/01/30 03:43:24;;;;;;;8.20;2.83;;;;;;;4.42;44.53;101596.75;2583644;23;20155;-69
2022/01/30 03:44:25;;;;;;;6.07;3.03;;;;;;;4.71;44.42;101650.97;2583657;23;20144;-70
2022/01/30 03:45:25;;;;;;;5.53;3.00;;;;;;;4.86;44.31;101650.03;2583515;23;20172;-70
2022/01/30 03:46:26;;;;;;;5.43;2.80;;;;;;;4.81;44.23;101650.34;2583521;23;20148;-70
2022/01/30 03:47:26;;;;;;;5.90;2.70;;;;;;;4.86;44.70;101649.22;2570023;23;20199;-70
2022/01/30 03:48:27;;;;;;;5.00;2.90;;;;;;;4.87;44.08;101653.56;2570274;23;20172;-69
2022/01/30 03:49:27;;;;;;;5.93;2.93;;;;;;;4.17;44.07;101537.94;2583549;23;20163;-70
2022/01/30 03:50:28;;;;;;;4.57;2.77;;;;;;;4.83;44.11;101659.00;2583516;23;20232;-70
2022/01/30 03:51:28;;;;;;;4.30;2.60;;;;;;;4.85;43.96;101639.41;2583518;23;20202;-69
2022/01/30 03:52:29;;;;;;;5.57;2.90;;;;;;;4.26;44.03;101538.47;2583561;23;20465;-70
2022/01/30 03:53:32;;;;;;;5.23;2.83;;;;;;;4.28;44.06;101521.66;2583526;23;20152;-69
2022/01/30 03:54:33;;;;;;;7.10;3.08;;;;;;;4.96;43.83;101621.94;2583508;23;20590;-70
2022/01/30 03:55:34;;;;;;;5.38;2.83;;;;;;;4.95;43.64;101619.53;2583529;23;20511;-70
2022/01/30 03:56:34;;;;;;;4.10;2.55;;;;;;;4.38;43.78;101527.31;2583509;23;20150;-70
2022/01/30 03:57:35;;;;;;;5.67;3.03;;;;;;;5.02;43.24;101609.44;2583578;23;20228;-70
2022/01/30 03:58:36;;;;;;;6.33;3.03;;;;;;;4.49;42.87;101524.72;2583585;23;20174;-70
2022/01/30 03:59:37;;;;;;;5.28;2.53;;;;;;;5.14;42.87;101589.97;2583697;23;20154;-70
2022/01/30 04:00:37;;;;;;;5.13;3.10;;;;;;;5.20;42.97;101584.97;2583654;23;20152;-70
2022/01/30 04:01:38;;;;;;;4.43;2.73;;;;;;;5.25;42.78;101587.38;2583593;23;20149;-70
2022/01/30 04:02:38;;;;;;;5.37;2.87;;;;;;;4.60;42.42;101488.03;2583533;23;20173;-70
2022/01/30 04:03:39;;;;;;;5.70;2.87;;;;;;;5.26;42.49;101576.03;2570044;23;20210;-70
2022/01/30 04:04:39;;;;;;;4.77;2.63;;;;;;;5.27;42.01;101579.56;2570226;23;20155;-70
2022/01/30 04:05:40;;;;;;;4.80;2.57;;;;;;;5.16;42.05;101559.38;2583460;23;20233;-70
2022/01/30 04:06:41;;;;;;;5.77;2.90;;;;;;;5.30;41.81;101574.13;2583483;23;20229;-69
2022/01/30 04:07:42;;;;;;;5.10;2.55;;;;;;;5.20;41.11;101557.50;2583412;23;20690;-70
2022/01/30 04:08:44;;;;;;;7.63;2.40;;;;;;;4.48;42.16;101444.34;2570100;23;20581;-70
2022/01/30 04:09:44;;;;;;;5.22;2.72;;;;;;;5.31;41.35;101561.97;2570249;23;20257;-70
2022/01/30 04:10:45;;;;;;;4.20;2.53;;;;;;;5.38;40.97;101570.28;2582801;23;20190;-70
2022/01/30 04:11:46;;;;;;;6.60;2.30;;;;;;;5.15;40.19;101553.13;2583268;23;20152;-70
2022/01/30 04:12:46;;;;;;;3.80;2.40;;;;;;;5.38;40.27;101564.78;2583627;23;20484;-70
2022/01/30 04:13:47;;;;;;;4.73;2.33;;;;;;;5.41;40.82;101572.28;2583381;23;20623;-70
2022/01/30 04:14:48;;;;;;;5.00;2.40;;;;;;;5.38;40.88;101570.28;2583447;23;20606;-70
2022/01/30 04:15:48;;;;;;;3.40;2.00;;;;;;;5.41;39.66;101555.81;2583345;23;20154;-70
2022/01/30 04:16:49;;;;;;;4.60;2.53;;;;;;;5.36;39.85;101553.38;2583652;23;20148;-70
2022/01/30 04:17:50;;;;;;;4.17;2.30;;;;;;;5.40;39.94;101572.66;2583694;23;20640;-70
2022/01/30 04:18:50;;;;;;;4.90;2.40;;;;;;;5.43;39.69;101567.19;2583568;23;20157;-70
2022/01/30 04:19:51;;;;;;;4.00;2.30;;;;;;;4.98;39.98;101511.69;2583591;23;20178;-70
2022/01/30 04:20:52;;;;;;;3.80;2.17;;;;;;;5.41;40.37;101544.00;2583388;23;20154;-70
2022/01/30 04:21:52;;;;;;;4.43;2.53;;;;;;;5.38;39.70;101553.78;2583376;23;20237;-70
2022/01/30 04:22:53;;;;;;;4.83;2.20;;;;;;;5.38;39.92;101542.78;2583596;23;20154;-70
2022/01/30 04:23:53;;;;;;;4.67;2.33;;;;;;;5.36;39.04;101547.09;2583337;23;20174;-70
2022/01/30 04:24:54;;;;;;;3.87;2.10;;;;;;;5.41;39.19;101547.56;2569973;23;20258;-69
2022/01/30 04:25:54;;;;;;;5.00;2.43;;;;;;;5.44;39.56;101543.25;2570300;23;20241;-70
2022/01/30 04:26:55;;;;;;;4.60;2.33;;;;;;;5.48;39.00;101533.09;2582422;23;20162;-69
2022/01/30 04:27:55;;;;;;;5.13;2.10;;;;;;;5.38;38.94;101534.53;2582552;23;20251;-70
2022/01/30 04:28:56;;;;;;;4.67;2.23;;;;;;;5.42;39.09;101534.59;2582506;23;20162;-69
2022/01/30 04:29:57;;;;;;;4.60;2.23;;;;;;;4.79;38.89;101426.69;2582669;23;20151;-70
2022/01/30 04:30:58;;;;;;;6.20;2.30;;;;;;;5.48;38.38;101525.63;2569949;23;20162;-70
2022/01/30 04:31:59;;;;;;;4.93;2.37;;;;;;;5.12;38.80;101457.69;2570220;23;20290;-69
2022/01/30 04:32:59;;;;;;;3.57;2.13;;;;;;;5.49;38.19;101501.69;2583355;23;20160;-70
2022/01/30 04:34:00;;;;;;;5.23;2.03;;;;;;;5.10;38.48;101432.56;2569863;23;20438;-69
2022/01/30 04:35:10;;;;;;;2.60;1.60;;;;;;;5.46;37.67;101503.22;2570068;23;20163;-70
2022/01/30 04:36:15;;;;;;;4.03;2.00;;;;;;;5.51;38.19;101491.91;2570007;23;20150;-70
2022/01/30 04:37:51;;;;;;;8.93;2.33;;;;;;;5.20;38.28;101453.88;2570998;23;20509;-70
2022/01/30 04:42:02;;;;;;;3.47;1.85;;;;;;;4.76;36.96;101383.50;2583408;23;20138;-69
2022/01/30 04:52:19;;;;;;;5.88;1.80;;;;;;;5.38;35.63;101399.09;2583371;23;20140;-69
2022/01/30 04:53:39;;;;;;;4.20;1.90;;;;;;;5.42;35.62;101411.69;2583511;23;20161;-69
2022/01/30 04:58:22;;;;;;;4.20;1.60;;;;;;;5.46;36.18;101397.97;2583225;23;20156;-70
2022/01/30 05:02:54;;;;;;;3.88;1.70;;;;;;;5.47;35.81;101391.31;2583411;23;20571;-69
2022/01/30 05:06:19;;;;;;;4.63;1.50;;;;;;;4.77;35.62;101298.00;2583461;23;20210;-69
2022/01/30 05:08:21;;;;;;;3.97;1.63;;;;;;;5.39;36.09;101378.69;2583192;23;20190;-69
2022/01/30 05:09:21;;;;;;;3.43;1.80;;;;;;;5.26;35.55;101356.19;2583390;23;20185;-69
2022/01/30 05:10:22;;;;;;;3.33;1.63;;;;;;;4.89;35.10;101291.44;2583274;23;20150;-69
2022/01/30 05:11:23;;;;;;;2.50;1.47;;;;;;;5.47;34.83;101385.81;2583238;23;20234;-69
2022/01/30 05:12:26;;;;;;;3.27;1.83;;;;;;;4.90;34.83;101293.81;2582999;23;20209;-69
2022/01/30 05:13:30;;;;;;;2.90;1.63;;;;;;;5.41;34.74;101373.56;2583220;23;20494;-69
2022/01/30 05:14:36;;;;;;;2.88;1.50;;;;;;;5.05;34.85;101313.97;2583236;23;20157;-69
2022/01/30 05:15:36;;;;;;;2.85;1.50;;;;;;;5.47;34.44;101366.56;2569893;23;20160;-69
2022/01/30 05:16:38;;;;;;;2.97;1.50;;;;;;;5.56;34.71;101372.53;2570302;23;20147;-69
2022/01/30 05:17:39;;;;;;;3.03;1.52;;;;;;;5.61;34.23;101347.44;2583272;23;20180;-69
2022/01/30 05:18:40;;;;;;;1.97;1.30;;;;;;;5.17;33.34;101283.47;2583386;23;20146;-69
2022/01/30 05:19:40;;;;;;;2.53;1.47;;;;;;;5.66;32.96;101334.13;2569861;23;20157;-69
2022/01/30 05:20:41;;;;;;;3.00;1.50;;;;;;;5.65;33.36;101337.25;2569941;23;20190;-69
2022/01/30 05:21:42;;;;;;;3.30;1.53;;;;;;;5.04;33.05;101239.03;2569781;23;20153;-69
2022/01/30 05:22:43;;;;;;;3.37;1.10;;;;;;;5.35;32.53;101270.66;2570145;23;20231;-69
2022/01/30 05:23:43;;;;;;;4.20;1.30;;;;;;;5.78;32.38;101331.06;2583102;23;20154;-69
2022/01/30 05:24:44;;;;;;;3.67;1.57;;;;;;;5.53;32.15;101297.09;2583155;23;20211;-70
2022/01/30 05:25:49;;;;;;;2.60;1.10;;;;;;;5.76;32.03;101322.41;2583150;23;20144;-70
2022/01/30 05:26:51;;;;;;;2.33;1.30;;;;;;;5.84;32.61;101324.06;2583294;23;20143;-70
2022/01/30 05:27:52;;;;;;;2.35;1.17;;;;;;;5.86;32.54;101307.97;2583232;23;20189;-69
2022/01/30 05:28:53;;;;;;;3.40;1.30;;;;;;;5.82;32.59;101320.91;2583129;23;20611;-69
2022/01/30 05:29:53;;;;;;;2.20;1.15;;;;;;;5.12;32.69;101217.91;2583301;23;20160;-70
2022/01/30 05:30:54;;;;;;;3.13;1.30;;;;;;;5.86;32.80;101316.22;2583152;23;20153;-69
2022/01/30 05:31:55;;;;;;;3.57;1.40;;;;;;;5.18;32.62;101213.63;2583199;23;20169;-70
2022/01/30 05:32:56;;;;;;;2.43;1.30;;;;;;;5.84;32.51;101312.28;2583240;23;20149;-69
2022/01/30 05:33:56;;;;;;;3.90;1.40;;;;;;;5.89;32.49;101298.94;2583192;23;20172;-69
2022/01/30 05:34:57;;;;;;;2.80;1.17;;;;;;;5.86;32.48;101301.69;2583143;23;20148;-70
2022/01/30 05:35:58;;;;;;;1.80;1.10;;;;;;;5.88;33.08;101300.13;2583214;23;20161;-69
2022/01/30 05:37:00;;;;;;;3.77;1.17;;;;;;;5.66;32.47;101264.59;2569832;23;20178;-69
2022/01/30 05:38:02;;;;;;;3.05;1.42;;;;;;;5.88;32.87;101291.88;2569980;23;20159;-69
2022/01/30 05:39:04;;;;;;;2.75;1.67;;;;;;;5.09;32.77;101191.19;2582437;23;20154;-70
2022/01/30 05:40:06;;;;;;;3.33;1.48;;;;;;;5.28;33.11;101234.91;2583139;23;20178;-69
2022/01/30 05:41:07;;;;;;;2.58;1.33;;;;;;;5.79;32.51;101316.13;2583084;23;20159;-69
2022/01/30 05:42:09;;;;;;;2.83;1.48;;;;;;;5.13;32.67;101206.50;2583327;23;20156;-69
2022/01/30 05:43:10;;;;;;;2.13;1.20;;;;;;;5.84;32.55;101313.06;2583074;23;20236;-69
2022/01/30 05:44:14;;;;;;;2.03;1.07;;;;;;;5.14;32.80;101216.31;2583135;23;20154;-70